Time;durP1;ratioP1;P1;durP2;ratioP2;P2;SDS_P1;SDS_P2;PMS_P1;PMS_P2;Temp;Humidity;BMP_temperature;BMP_pressure;BME280_temperature;BME280_humidity;BME280_pressure;Samples;Min_cycle;Max_cycle;Signal;HPM_P1;HPM_P2
2022/11/23 00:01:18;;;;;;;2.15;1.67;;;10.10;87.00;;;;;;5001258;28;20556;-61
2022/11/23 00:03:46;;;;;;;2.30;1.00;;;10.10;87.00;;;;;;4993982;28;20199;-62
2022/11/23 00:06:12;;;;;;;2.97;1.67;;;10.10;87.20;;;;;;4991683;28;20026;-62
2022/11/23 00:08:38;;;;;;;3.75;1.80;;;10.10;87.10;;;;;;4993515;28;20048;-62
2022/11/23 00:11:04;;;;;;;3.33;1.90;;;10.10;87.30;;;;;;4994098;28;20465;-62
2022/11/23 00:13:30;;;;;;;2.72;1.20;;;10.10;87.30;;;;;;4994307;28;20026;-61
2022/11/23 00:15:56;;;;;;;2.28;1.25;;;10.10;87.30;;;;;;4996416;28;20105;-61
2022/11/23 00:18:21;;;;;;;2.22;1.60;;;10.10;87.20;;;;;;4992068;28;20109;-61
2022/11/23 00:20:47;;;;;;;2.47;1.30;;;10.10;87.10;;;;;;5024372;28;20377;-62
2022/11/23 00:23:13;;;;;;;2.60;1.75;;;10.20;87.20;;;;;;4993194;28;20030;-62
2022/11/23 00:25:38;;;;;;;3.30;2.03;;;10.20;87.20;;;;;;4993743;28;20113;-62
2022/11/23 00:28:04;;;;;;;2.40;1.38;;;10.20;87.30;;;;;;4996258;28;20066;-60
2022/11/23 00:30:31;;;;;;;7.80;2.25;;;10.20;87.50;;;;;;4992742;28;20359;-62
2022/11/23 00:32:57;;;;;;;5.18;2.13;;;10.10;87.60;;;;;;4994324;28;20034;-63
2022/11/23 00:35:23;;;;;;;4.25;1.70;;;10.10;87.60;;;;;;4996672;28;20018;-62
2022/11/23 00:37:49;;;;;;;2.55;1.67;;;10.10;87.80;;;;;;4994309;28;20037;-62
2022/11/23 00:40:15;;;;;;;3.58;1.98;;;10.10;87.90;;;;;;4999858;28;20493;-62
2022/11/23 00:42:41;;;;;;;3.22;1.85;;;10.10;87.80;;;;;;5001134;28;20039;-61
2022/11/23 00:45:07;;;;;;;7.30;1.63;;;10.10;87.90;;;;;;4999945;28;20484;-62
2022/11/23 00:47:32;;;;;;;7.00;1.58;;;10.20;87.90;;;;;;5007549;28;20125;-61
2022/11/23 00:49:58;;;;;;;2.83;1.70;;;10.20;87.90;;;;;;5005667;28;20121;-61
2022/11/23 00:52:24;;;;;;;1.75;1.60;;;10.20;87.80;;;;;;5004730;28;20099;-61
2022/11/23 00:54:49;;;;;;;2.30;1.35;;;10.20;87.70;;;;;;5001854;28;20050;-61
2022/11/23 00:57:15;;;;;;;2.78;1.60;;;10.20;87.70;;;;;;5010578;28;20338;-62
2022/11/23 00:59:41;;;;;;;2.63;1.52;;;10.20;87.70;;;;;;5005521;28;20034;-63
2022/11/23 01:02:06;;;;;;;6.43;2.00;;;10.30;87.70;;;;;;5007567;28;20137;-62
2022/11/23 01:04:32;;;;;;;3.08;1.75;;;10.30;87.70;;;;;;5005922;28;20027;-63
2022/11/23 01:06:58;;;;;;;3.28;1.60;;;10.30;87.70;;;;;;5003921;28;20117;-63
2022/11/23 01:09:25;;;;;;;4.05;1.75;;;10.30;87.70;;;;;;4996664;28;20030;-62
2022/11/23 01:11:53;;;;;;;2.97;1.77;;;10.30;87.60;;;;;;5007779;28;20022;-62
2022/11/23 01:14:20;;;;;;;3.05;2.00;;;10.30;87.60;;;;;;5006197;28;20331;-62
2022/11/23 01:16:45;;;;;;;2.65;1.80;;;10.40;87.60;;;;;;5003441;28;20362;-63
2022/11/23 01:19:13;;;;;;;3.70;2.22;;;10.40;87.50;;;;;;5007115;28;20049;-63
2022/11/23 01:21:39;;;;;;;5.72;2.05;;;10.40;87.50;;;;;;5006487;28;20037;-61
2022/11/23 01:24:20;;;;;;;7.95;1.92;;;10.40;87.40;;;;;;5002601;28;20057;-63
2022/11/23 01:26:53;;;;;;;3.65;1.58;;;10.40;87.30;;;;;;5002197;28;20109;-62
2022/11/23 01:29:18;;;;;;;3.58;1.67;;;10.40;87.30;;;;;;5001905;28;20034;-62
2022/11/23 01:31:44;;;;;;;2.72;1.27;;;10.40;87.20;;;;;;5001241;28;20042;-62
2022/11/23 01:34:11;;;;;;;7.88;2.45;;;10.40;87.20;;;;;;5007994;28;20029;-62
2022/11/23 01:36:37;;;;;;;4.90;1.85;;;10.40;87.20;;;;;;4999671;28;20386;-62
2022/11/23 01:39:04;;;;;;;3.17;1.58;;;10.40;87.20;;;;;;5006010;28;20021;-62
2022/11/23 01:41:38;;;;;;;2.55;1.60;;;10.40;87.20;;;;;;5004631;28;20030;-62
2022/11/23 01:44:28;;;;;;;10.40;2.70;;;10.50;87.20;;;;;;5010302;28;20473;-62
2022/11/23 01:47:02;;;;;;;1.83;1.33;;;10.40;87.10;;;;;;5007002;28;20530;-61
2022/11/23 01:49:34;;;;;;;1.75;1.55;;;10.40;87.40;;;;;;5006823;28;20348;-61
2022/11/23 01:52:14;;;;;;;8.80;1.60;;;10.40;87.30;;;;;;4998899;28;20030;-62
2022/11/23 01:54:48;;;;;;;2.08;1.88;;;10.50;87.20;;;;;;4991736;28;20277;-62
2022/11/23 01:57:23;;;;;;;3.30;1.80;;;10.40;87.10;;;;;;4999203;28;20110;-61
2022/11/23 01:59:49;;;;;;;3.65;1.80;;;10.40;87.20;;;;;;4991325;28;20050;-61
2022/11/23 02:02:15;;;;;;;8.75;2.08;;;10.40;87.20;;;;;;4980047;28;20052;-62
2022/11/23 02:04:45;;;;;;;4.72;1.60;;;10.40;87.30;;;;;;4991743;28;20541;-62
2022/11/23 02:07:12;;;;;;;3.25;1.25;;;10.40;87.30;;;;;;4986170;28;20135;-61
2022/11/23 02:09:38;;;;;;;2.97;1.65;;;10.40;87.20;;;;;;4992186;28;20037;-61
2022/11/23 02:12:10;;;;;;;2.67;1.27;;;10.50;87.20;;;;;;4992390;28;20042;-62
2022/11/23 02:14:35;;;;;;;3.28;1.17;;;10.50;87.00;;;;;;4978745;28;20495;-62
2022/11/23 02:17:01;;;;;;;2.15;1.63;;;10.50;87.00;;;;;;4995436;28;20022;-62
2022/11/23 02:19:33;;;;;;;5.35;1.65;;;10.50;87.00;;;;;;4980323;28;20054;-62
2022/11/23 02:21:58;;;;;;;1.95;1.38;;;10.50;87.50;;;;;;4996971;28;20018;-62
2022/11/23 02:24:35;;;;;;;4.20;1.35;;;10.50;87.40;;;;;;5022867;28;20085;-62
2022/11/23 02:27:03;;;;;;;3.70;2.03;;;10.50;86.80;;;;;;5007084;28;20608;-62
2022/11/23 02:29:29;;;;;;;2.55;1.30;;;10.50;86.90;;;;;;5000968;28;20018;-63
2022/11/23 02:31:54;;;;;;;2.05;1.50;;;10.50;86.90;;;;;;4994723;28;20401;-62
2022/11/23 02:34:20;;;;;;;1.58;0.95;;;10.50;86.80;;;;;;4993488;28;20061;-60
2022/11/23 02:36:48;;;;;;;2.53;1.45;;;10.50;86.80;;;;;;4993559;28;20436;-63
2022/11/23 02:39:37;;;;;;;7.47;1.23;;;10.50;86.70;;;;;;4992265;28;20033;-63
2022/11/23 02:42:04;;;;;;;0.80;0.80;;;10.50;86.60;;;;;;4991172;28;20482;-61
2022/11/23 02:44:32;;;;;;;3.00;1.40;;;10.50;86.70;;;;;;5001432;28;20065;-59
2022/11/23 02:46:58;;;;;;;2.47;1.60;;;10.50;86.70;;;;;;4991335;28;20424;-63
2022/11/23 02:49:24;;;;;;;3.70;1.35;;;10.40;86.80;;;;;;4994994;28;20022;-62
2022/11/23 02:51:50;;;;;;;7.25;1.48;;;10.50;86.70;;;;;;4991352;28;20037;-62
2022/11/23 02:54:15;;;;;;;2.97;1.25;;;10.50;86.60;;;;;;4992472;28;20030;-62
2022/11/23 02:56:41;;;;;;;2.72;1.30;;;10.50;86.60;;;;;;4988312;28;20093;-61
2022/11/23 02:59:06;;;;;;;3.72;1.90;;;10.40;86.50;;;;;;4993828;28;20080;-61
2022/11/23 03:01:32;;;;;;;3.67;1.05;;;10.40;86.50;;;;;;4989748;28;20046;-61
2022/11/23 03:03:58;;;;;;;1.17;1.08;;;10.50;86.60;;;;;;4992954;28;20109;-61
2022/11/23 03:06:23;;;;;;;3.30;1.20;;;10.40;87.10;;;;;;5021679;28;20034;-61
2022/11/23 03:08:49;;;;;;;3.83;1.05;;;10.40;86.50;;;;;;5000191;28;20038;-62
2022/11/23 03:11:16;;;;;;;6.15;1.40;;;10.40;86.50;;;;;;4991615;28;20034;-62
2022/11/23 03:13:42;;;;;;;3.20;0.90;;;10.40;86.40;;;;;;5020999;28;20450;-62
2022/11/23 03:16:08;;;;;;;1.15;1.00;;;10.40;86.30;;;;;;4994840;28;20553;-62
2022/11/23 03:18:33;;;;;;;2.33;1.58;;;10.40;86.30;;;;;;4990872;28;20023;-62
2022/11/23 03:21:04;;;;;;;3.65;1.30;;;10.40;86.30;;;;;;4992758;28;20060;-62
2022/11/23 03:23:29;;;;;;;2.80;0.93;;;10.40;86.20;;;;;;5001409;28;20037;-62
2022/11/23 03:25:56;;;;;;;1.52;0.90;;;10.40;86.20;;;;;;5025930;28;20034;-62
2022/11/23 03:28:22;;;;;;;2.60;1.23;;;10.40;86.20;;;;;;5006939;28;20341;-62
2022/11/23 03:30:48;;;;;;;3.72;0.93;;;10.40;86.20;;;;;;4997368;28;20038;-62
2022/11/23 03:33:13;;;;;;;3.85;1.35;;;10.40;86.10;;;;;;5007540;28;20101;-62
2022/11/23 03:35:40;;;;;;;2.45;1.15;;;10.50;86.00;;;;;;5013670;28;20022;-62
2022/11/23 03:38:06;;;;;;;1.58;1.02;;;10.50;85.90;;;;;;5010219;28;20079;-63
2022/11/23 03:40:31;;;;;;;1.45;0.93;;;10.50;85.90;;;;;;5013850;28;20026;-62
2022/11/23 03:42:57;;;;;;;2.33;1.27;;;10.50;85.90;;;;;;5011840;28;20041;-62
2022/11/23 03:45:22;;;;;;;0.82;0.47;;;10.50;85.80;;;;;;4997745;28;20041;-62
2022/11/23 03:47:48;;;;;;;2.70;1.00;;;10.60;85.80;;;;;;5000861;28;20046;-62
2022/11/23 03:50:14;;;;;;;1.88;1.20;;;10.60;85.70;;;;;;4998152;28;20040;-63
2022/11/23 03:52:39;;;;;;;3.17;1.10;;;10.60;85.60;;;;;;4999456;28;20030;-62
2022/11/23 03:55:05;;;;;;;1.83;0.80;;;10.60;85.60;;;;;;4994761;28;20030;-63
2022/11/23 03:57:31;;;;;;;1.88;1.17;;;10.60;85.60;;;;;;5007907;28;20030;-62
2022/11/23 03:59:57;;;;;;;2.03;1.00;;;10.60;85.70;;;;;;4993848;28;20057;-63
2022/11/23 04:02:22;;;;;;;0.93;0.80;;;10.60;85.70;;;;;;4998977;28;20101;-62
2022/11/23 04:04:49;;;;;;;3.63;1.35;;;10.50;85.60;;;;;;4994207;28;20028;-62
2022/11/23 04:07:14;;;;;;;2.13;1.02;;;10.60;85.60;;;;;;4997662;28;20134;-62
2022/11/23 04:09:40;;;;;;;1.08;1.05;;;10.60;85.60;;;;;;4993922;28;20060;-62
2022/11/23 04:12:06;;;;;;;4.97;1.17;;;10.60;85.50;;;;;;4997253;28;20038;-62
2022/11/23 04:14:32;;;;;;;2.33;1.40;;;10.60;85.50;;;;;;4993141;28;20022;-62
2022/11/23 04:16:57;;;;;;;2.25;1.17;;;10.60;85.50;;;;;;4995679;28;20053;-62
2022/11/23 04:19:23;;;;;;;1.98;1.15;;;10.60;85.40;;;;;;4993553;28;20129;-63
2022/11/23 04:21:49;;;;;;;1.35;0.70;;;10.60;85.40;;;;;;5009959;28;20397;-62
2022/11/23 04:24:14;;;;;;;2.47;1.00;;;10.60;85.50;;;;;;4992772;28;20046;-62
2022/11/23 04:26:40;;;;;;;1.15;1.00;;;10.60;85.50;;;;;;5002289;28;20057;-62
2022/11/23 04:29:06;;;;;;;2.25;1.20;;;10.60;85.30;;;;;;5000565;28;20113;-62
2022/11/23 04:31:31;;;;;;;1.02;0.93;;;10.60;85.40;;;;;;5013526;28;20026;-62
2022/11/23 04:33:57;;;;;;;1.10;1.00;;;10.60;85.30;;;;;;5003520;28;20030;-62
2022/11/23 04:36:23;;;;;;;1.45;0.70;;;10.60;85.30;;;;;;4992926;28;20049;-62
2022/11/23 04:38:49;;;;;;;3.55;1.05;;;10.60;85.20;;;;;;4995883;28;20029;-62
2022/11/23 04:41:15;;;;;;;0.73;0.68;;;10.60;85.20;;;;;;5000684;28;20093;-62
2022/11/23 04:43:41;;;;;;;5.53;1.48;;;10.60;85.10;;;;;;4991740;28;20422;-62
2022/11/23 04:46:08;;;;;;;9.68;1.67;;;10.60;85.20;;;;;;5002851;28;20036;-63
2022/11/23 04:48:33;;;;;;;3.33;1.25;;;10.60;85.20;;;;;;5004322;28;20105;-62
2022/11/23 04:50:59;;;;;;;0.95;0.50;;;10.60;85.20;;;;;;4995948;28;20121;-62
2022/11/23 04:53:25;;;;;;;2.22;1.60;;;10.60;85.20;;;;;;4992116;28;20032;-62
2022/11/23 04:55:50;;;;;;;3.60;1.15;;;10.50;85.20;;;;;;5005922;28;20030;-62
2022/11/23 04:58:16;;;;;;;2.75;1.20;;;10.50;85.40;;;;;;5004266;28;20035;-62
2022/11/23 05:00:42;;;;;;;1.38;1.17;;;10.50;85.40;;;;;;5002614;28;20029;-62
2022/11/23 05:03:07;;;;;;;1.05;0.95;;;10.50;85.30;;;;;;5009123;28;20036;-62
2022/11/23 05:05:35;;;;;;;2.15;1.00;;;10.50;85.30;;;;;;4999416;28;20027;-62
2022/11/23 05:08:01;;;;;;;0.90;0.88;;;10.50;85.20;;;;;;4993300;28;20027;-61
2022/11/23 05:10:27;;;;;;;1.33;0.82;;;10.50;85.20;;;;;;4998818;28;20033;-62
2022/11/23 05:12:52;;;;;;;2.25;1.15;;;10.50;85.20;;;;;;4992095;28;20370;-61
2022/11/23 05:15:18;;;;;;;1.40;0.88;;;10.50;85.10;;;;;;4994307;28;20042;-61
2022/11/23 05:17:44;;;;;;;1.02;0.80;;;10.50;85.00;;;;;;4993456;28;20050;-61
2022/11/23 05:20:10;;;;;;;4.15;1.30;;;10.50;85.00;;;;;;5006808;28;20047;-60
2022/11/23 05:22:36;;;;;;;1.75;1.02;;;10.50;85.00;;;;;;4992574;28;20038;-61
2022/11/23 05:25:02;;;;;;;4.75;1.45;;;10.50;85.00;;;;;;4993061;28;20397;-61
2022/11/23 05:27:28;;;;;;;2.60;0.93;;;10.50;85.00;;;;;;4989573;28;20560;-62
2022/11/23 05:29:53;;;;;;;2.25;1.13;;;10.50;85.10;;;;;;4992064;28;20121;-61
2022/11/23 05:32:19;;;;;;;1.55;1.10;;;10.50;85.10;;;;;;4995172;28;20022;-60
2022/11/23 05:34:44;;;;;;;13.88;1.40;;;10.50;85.00;;;;;;5003629;28;20067;-62
2022/11/23 05:37:10;;;;;;;1.38;1.02;;;10.50;85.00;;;;;;5005741;28;20536;-62
2022/11/23 05:39:36;;;;;;;2.70;1.25;;;10.50;85.00;;;;;;5002539;28;20459;-61
2022/11/23 05:42:02;;;;;;;2.08;0.80;;;10.50;85.00;;;;;;5005200;28;20034;-62
2022/11/23 05:44:27;;;;;;;4.28;1.17;;;10.50;84.90;;;;;;5008317;28;20374;-62
2022/11/23 05:46:53;;;;;;;3.20;1.42;;;10.40;84.90;;;;;;5005345;28;20018;-61
2022/11/23 05:49:18;;;;;;;15.02;1.80;;;10.40;84.90;;;;;;5004666;28;20065;-61
2022/11/23 05:51:45;;;;;;;2.75;1.38;;;10.40;84.80;;;;;;4997773;28;20046;-62
2022/11/23 05:54:11;;;;;;;4.32;1.50;;;10.50;84.90;;;;;;5000787;28;20104;-65
2022/11/23 05:56:37;;;;;;;2.72;1.55;;;10.50;84.90;;;;;;4994399;28;20034;-62
2022/11/23 05:59:04;;;;;;;5.22;1.15;;;10.50;84.80;;;;;;5005454;28;20030;-62
2022/11/23 06:01:30;;;;;;;1.35;0.85;;;10.60;84.70;;;;;;5004812;28;20092;-61
2022/11/23 06:03:56;;;;;;;1.08;0.75;;;10.60;84.70;;;;;;4991627;28;20497;-61
2022/11/23 06:06:22;;;;;;;3.25;0.90;;;10.60;84.60;;;;;;4991300;28;20038;-61
2022/11/23 06:08:47;;;;;;;2.35;1.55;;;10.60;84.50;;;;;;4995064;28;20050;-61
2022/11/23 06:11:13;;;;;;;1.92;1.30;;;10.60;84.50;;;;;;4992686;28;20030;-62
2022/11/23 06:13:39;;;;;;;2.67;0.82;;;10.50;84.60;;;;;;4989904;28;20026;-62
2022/11/23 06:16:05;;;;;;;2.88;0.68;;;10.50;84.60;;;;;;4995427;28;20410;-61
2022/11/23 06:18:30;;;;;;;1.85;0.80;;;10.50;84.60;;;;;;5005945;28;20026;-63
2022/11/23 06:21:00;;;;;;;4.10;1.30;;;10.50;84.70;;;;;;4987572;28;20401;-62
2022/11/23 06:23:26;;;;;;;7.50;1.38;;;10.50;84.60;;;;;;4999560;28;20144;-62
2022/11/23 06:25:52;;;;;;;2.60;1.17;;;10.50;84.70;;;;;;4997108;28;20026;-61
2022/11/23 06:28:18;;;;;;;7.40;1.00;;;10.50;84.60;;;;;;4998442;28;20424;-61
2022/11/23 06:30:44;;;;;;;3.70;1.10;;;10.50;84.70;;;;;;4997021;28;20045;-61
2022/11/23 06:33:09;;;;;;;4.47;1.40;;;10.50;84.60;;;;;;5000112;28;20076;-61
2022/11/23 06:35:35;;;;;;;1.83;1.05;;;10.40;84.60;;;;;;5002627;28;20030;-62
2022/11/23 06:38:01;;;;;;;2.15;0.85;;;10.40;84.60;;;;;;5007116;28;20425;-62
2022/11/23 06:40:27;;;;;;;6.05;1.52;;;10.40;85.10;;;;;;5002732;28;20038;-61
2022/11/23 06:43:00;;;;;;;3.08;1.08;;;10.50;84.60;;;;;;5004689;28;20033;-61
2022/11/23 06:45:26;;;;;;;;;;;10.50;84.60;;;;;;4991966;28;20542;-61
2022/11/23 06:47:55;;;;;;;2.90;0.93;;;10.40;84.50;;;;;;5005762;28;19963;-61
2022/11/23 06:50:21;;;;;;;1.25;0.95;;;10.40;84.60;;;;;;5002560;28;20369;-61
2022/11/23 06:52:47;;;;;;;2.45;1.02;;;10.40;84.50;;;;;;5005455;28;20045;-61
2022/11/23 06:55:13;;;;;;;7.80;1.70;;;10.40;84.50;;;;;;5003081;28;20084;-61
2022/11/23 06:57:38;;;;;;;9.20;1.30;;;10.40;84.50;;;;;;4999938;28;20109;-62
2022/11/23 07:00:05;;;;;;;1.92;1.45;;;10.40;84.40;;;;;;4993734;28;20037;-61
2022/11/23 07:02:30;;;;;;;5.25;1.50;;;10.40;84.30;;;;;;5006203;28;20034;-62
2022/11/23 07:04:56;;;;;;;1.17;0.95;;;10.40;84.20;;;;;;5002102;28;20030;-61
2022/11/23 07:07:22;;;;;;;3.70;1.48;;;10.40;84.20;;;;;;4986381;28;20026;-61
2022/11/23 07:09:47;;;;;;;0.95;0.85;;;10.40;84.70;;;;;;5008866;28;20033;-62
2022/11/23 07:12:13;;;;;;;4.22;1.35;;;10.40;83.90;;;;;;5003683;28;20031;-59
2022/11/23 07:14:38;;;;;;;2.72;1.23;;;10.40;83.90;;;;;;4998192;28;20471;-63
2022/11/23 07:17:04;;;;;;;4.75;1.48;;;10.40;83.80;;;;;;5002706;28;20485;-63
2022/11/23 07:19:30;;;;;;;2.53;0.93;;;10.40;83.80;;;;;;4993887;28;20053;-62
2022/11/23 07:21:55;;;;;;;3.65;1.48;;;10.40;83.90;;;;;;5000293;28;20041;-64
2022/11/23 07:24:21;;;;;;;1.75;1.00;;;10.40;83.90;;;;;;4993131;28;20608;-65
2022/11/23 07:26:47;;;;;;;1.60;0.90;;;10.40;83.70;;;;;;4992716;28;20035;-60
2022/11/23 07:29:12;;;;;;;3.58;1.17;;;10.40;83.70;;;;;;4996552;28;20113;-61
2022/11/23 07:31:38;;;;;;;1.40;1.15;;;10.40;83.70;;;;;;5007257;28;20131;-65
2022/11/23 07:34:04;;;;;;;4.68;1.58;;;10.40;83.60;;;;;;4999432;28;20025;-64
2022/11/23 07:36:29;;;;;;;3.45;1.30;;;10.40;83.50;;;;;;5007277;28;20096;-64
2022/11/23 07:38:55;;;;;;;4.82;1.50;;;10.40;83.50;;;;;;5000579;28;20058;-65
2022/11/23 07:41:21;;;;;;;3.45;1.27;;;10.40;83.50;;;;;;4995119;28;20030;-64
2022/11/23 07:43:47;;;;;;;2.10;1.30;;;10.40;83.60;;;;;;5008230;28;20022;-63
2022/11/23 07:46:12;;;;;;;6.65;1.98;;;10.40;83.50;;;;;;5007402;28;20500;-64
2022/11/23 07:48:38;;;;;;;2.80;1.05;;;10.30;83.60;;;;;;5040990;28;20030;-65
2022/11/23 07:51:04;;;;;;;5.50;1.27;;;10.30;83.70;;;;;;5002094;28;20472;-64
2022/11/23 07:53:29;;;;;;;3.90;1.15;;;10.30;83.70;;;;;;5006056;28;20037;-64
2022/11/23 07:55:58;;;;;;;3.88;1.60;;;10.30;83.60;;;;;;5003278;28;20030;-64
2022/11/23 07:58:24;;;;;;;2.97;1.20;;;10.30;83.60;;;;;;4985382;28;20029;-65
2022/11/23 08:00:50;;;;;;;3.85;1.23;;;10.40;83.70;;;;;;5006752;28;20393;-60
2022/11/23 08:03:15;;;;;;;3.88;1.45;;;10.30;83.60;;;;;;4997077;28;20040;-64
2022/11/23 08:05:41;;;;;;;2.13;0.93;;;10.30;83.70;;;;;;4994861;28;20101;-63
2022/11/23 08:08:07;;;;;;;1.50;0.73;;;10.30;83.60;;;;;;4995957;28;20441;-62
2022/11/23 08:10:33;;;;;;;5.38;1.17;;;10.20;83.70;;;;;;4999558;28;20089;-64
2022/11/23 08:13:02;;;;;;;2.45;1.02;;;10.20;84.40;;;;;;5001253;28;20476;-65
2022/11/23 08:15:27;;;;;;;3.33;1.30;;;10.20;84.00;;;;;;4998894;28;20046;-64
2022/11/23 08:17:57;;;;;;;4.95;0.95;;;10.20;84.00;;;;;;4992400;28;20181;-65
2022/11/23 08:20:24;;;;;;;3.25;1.50;;;10.30;84.10;;;;;;5009632;28;20116;-62
2022/11/23 08:22:49;;;;;;;3.67;0.85;;;10.30;84.00;;;;;;5008150;28;20042;-64
2022/11/23 08:25:15;;;;;;;1.70;0.90;;;10.30;84.10;;;;;;5005423;28;20038;-62
2022/11/23 08:27:41;;;;;;;2.00;0.90;;;10.40;84.00;;;;;;5010949;28;20439;-66
2022/11/23 08:30:07;;;;;;;1.95;1.35;;;10.40;83.90;;;;;;4997551;28;20576;-63
2022/11/23 08:32:33;;;;;;;2.42;1.70;;;10.40;83.80;;;;;;5000149;28;20389;-63
2022/11/23 08:34:58;;;;;;;5.60;1.23;;;10.40;83.90;;;;;;4993467;28;20274;-62
2022/11/23 08:37:24;;;;;;;1.77;1.10;;;10.40;83.90;;;;;;5004012;28;20034;-62
2022/11/23 08:39:50;;;;;;;1.88;1.20;;;10.40;83.80;;;;;;4993276;28;20026;-62
2022/11/23 08:42:15;;;;;;;2.40;1.23;;;10.50;83.80;;;;;;4991042;28;20035;-62
2022/11/23 08:44:41;;;;;;;2.05;1.20;;;10.50;83.80;;;;;;4992767;28;20101;-62
2022/11/23 08:47:07;;;;;;;3.38;1.30;;;10.50;83.70;;;;;;5022011;28;20200;-62
2022/11/23 08:49:32;;;;;;;2.08;1.00;;;10.50;83.60;;;;;;5006478;28;20034;-63
2022/11/23 08:51:59;;;;;;;4.50;1.20;;;10.60;83.70;;;;;;5001931;28;20041;-62
2022/11/23 08:54:24;;;;;;;4.90;1.48;;;10.60;83.30;;;;;;5010813;28;20477;-62
2022/11/23 08:56:51;;;;;;;3.88;1.13;;;10.70;83.30;;;;;;5007068;28;20024;-63
2022/11/23 08:59:17;;;;;;;1.25;0.93;;;10.70;83.20;;;;;;5011156;28;20025;-63
2022/11/23 09:01:44;;;;;;;1.95;0.93;;;10.80;83.10;;;;;;5007742;28;20077;-62
2022/11/23 09:04:09;;;;;;;3.35;0.88;;;10.90;83.00;;;;;;4991670;28;20030;-60
2022/11/23 09:06:35;;;;;;;3.38;1.67;;;11.00;82.90;;;;;;4990272;28;20026;-60
2022/11/23 09:09:01;;;;;;;2.15;1.13;;;11.10;82.60;;;;;;4992778;28;20096;-61
2022/11/23 09:11:27;;;;;;;5.18;1.67;;;11.20;82.20;;;;;;4992563;28;20034;-61
2022/11/23 09:13:53;;;;;;;3.35;1.77;;;11.30;81.80;;;;;;5024784;28;20375;-60
2022/11/23 09:16:19;;;;;;;9.35;1.52;;;11.30;81.40;;;;;;4992052;28;20026;-61
2022/11/23 09:18:45;;;;;;;2.13;1.33;;;11.30;80.90;;;;;;4993247;28;20026;-61
2022/11/23 09:21:11;;;;;;;7.93;1.83;;;11.30;80.90;;;;;;4991423;28;20043;-61
2022/11/23 09:23:37;;;;;;;3.90;1.02;;;11.30;80.10;;;;;;4996211;28;20046;-62
2022/11/23 09:26:03;;;;;;;7.47;1.15;;;11.30;79.70;;;;;;5004036;28;20041;-62
2022/11/23 09:28:29;;;;;;;2.30;0.80;;;11.40;79.80;;;;;;4983709;28;20034;-59
2022/11/23 09:30:56;;;;;;;1.55;0.80;;;11.50;79.30;;;;;;4992538;28;20117;-60
2022/11/23 09:33:23;;;;;;;2.55;1.13;;;11.50;79.10;;;;;;4992970;28;20025;-61
2022/11/23 09:36:01;;;;;;;2.65;1.05;;;11.40;78.60;;;;;;4991406;28;20413;-60
2022/11/23 09:38:27;;;;;;;1.45;0.93;;;11.50;78.70;;;;;;5003728;28;20076;-61
2022/11/23 09:41:00;;;;;;;5.18;1.02;;;11.50;78.80;;;;;;5007544;28;20030;-61
2022/11/23 09:43:28;;;;;;;;;;;11.60;78.80;;;;;;4992336;28;20041;-61
2022/11/23 09:45:56;;;;;;;2.03;1.25;;;11.60;78.90;;;;;;4989162;28;20407;-61
2022/11/23 09:48:57;;;;;;;3.20;1.02;;;11.60;78.70;;;;;;4987638;28;20049;-61
2022/11/23 09:51:22;;;;;;;5.10;1.35;;;11.60;78.20;;;;;;4990766;28;20034;-61
2022/11/23 09:53:54;;;;;;;5.93;1.45;;;11.60;78.10;;;;;;4996569;28;20023;-60
2022/11/23 09:56:27;;;;;;;3.92;1.13;;;11.50;78.20;;;;;;5000398;28;20381;-60
2022/11/23 09:58:56;;;;;;;0.88;0.75;;;11.50;77.50;;;;;;4991985;28;20389;-61
2022/11/23 10:01:21;;;;;;;5.40;1.55;;;11.50;77.50;;;;;;4991231;28;20101;-60
2022/11/23 10:03:47;;;;;;;6.93;1.40;;;11.50;77.00;;;;;;4992049;28;20109;-62
2022/11/23 10:06:41;;;;;;;4.40;1.40;;;11.60;77.00;;;;;;4991739;28;20038;-60
2022/11/23 10:09:55;;;;;;;3.05;1.38;;;11.80;76.70;;;;;;4989773;28;20441;-61
2022/11/23 10:12:36;;;;;;;1.92;0.85;;;12.10;76.50;;;;;;4983048;28;20103;-62
2022/11/23 10:15:02;;;;;;;6.07;1.52;;;12.80;76.20;;;;;;5022352;28;20034;-61
2022/11/23 10:17:49;;;;;;;3.85;1.05;;;14.20;71.40;;;;;;4981634;28;20362;-61
2022/11/23 10:20:45;;;;;;;1.60;0.80;;;15.80;66.90;;;;;;4992281;28;20046;-61
2022/11/23 10:23:39;;;;;;;2.58;1.80;;;18.00;61.80;;;;;;4957885;28;20374;-60
2022/11/23 10:26:18;;;;;;;0.82;0.70;;;19.60;58.00;;;;;;4992328;28;20058;-61
2022/11/23 10:28:46;;;;;;;2.25;0.85;;;20.90;54.80;;;;;;4998970;28;20018;-60
2022/11/23 10:31:16;;;;;;;2.70;1.10;;;21.70;52.30;;;;;;4997031;28;20042;-62
2022/11/23 10:34:10;;;;;;;1.13;0.60;;;22.10;49.90;;;;;;4990727;28;20026;-61
2022/11/23 10:36:40;;;;;;;2.33;1.00;;;22.40;48.80;;;;;;5005936;28;20056;-62
2022/11/23 10:39:22;;;;;;;2.28;1.15;;;22.70;47.70;;;;;;4991468;28;20034;-61
2022/11/23 10:41:53;;;;;;;3.13;1.05;;;23.10;47.00;;;;;;4992140;28;20026;-61
2022/11/23 10:44:36;;;;;;;2.05;1.27;;;22.60;46.50;;;;;;4992188;28;20436;-62
2022/11/23 10:47:03;;;;;;;1.58;1.02;;;21.70;47.10;;;;;;4986533;28;20025;-60
2022/11/23 10:49:31;;;;;;;2.78;1.25;;;21.20;47.90;;;;;;4991655;28;20028;-60
2022/11/23 10:52:04;;;;;;;2.05;1.23;;;21.60;47.30;;;;;;4990934;28;20035;-60
2022/11/23 10:54:32;;;;;;;;;;;22.00;46.30;;;;;;4991703;28;20034;-60
2022/11/23 10:56:59;;;;;;;1.67;0.60;;;22.30;44.90;;;;;;4991826;28;20393;-60
2022/11/23 10:59:27;;;;;;;2.00;0.82;;;23.00;45.30;;;;;;4992554;28;20058;-60
2022/11/23 11:02:20;;;;;;;0.85;0.60;;;24.00;44.50;;;;;;4991152;28;20018;-60
2022/11/23 11:04:48;;;;;;;3.42;0.65;;;24.80;43.20;;;;;;4990468;28;20490;-60
2022/11/23 11:07:28;;;;;;;1.05;0.70;;;25.10;41.70;;;;;;4991788;28;20584;-60
2022/11/23 11:09:59;;;;;;;2.05;1.08;;;25.60;40.60;;;;;;4991136;28;20034;-60
2022/11/23 11:12:27;;;;;;;1.85;0.45;;;25.70;40.50;;;;;;4992727;28;20022;-61
2022/11/23 11:15:03;;;;;;;3.33;1.10;;;26.00;40.40;;;;;;4990857;28;20509;-61
2022/11/23 11:17:33;;;;;;;2.70;0.60;;;26.30;39.90;;;;;;4993204;28;20089;-61
2022/11/23 11:20:32;;;;;;;1.08;0.70;;;26.30;39.70;;;;;;4990675;28;20081;-62
2022/11/23 11:23:13;;;;;;;3.20;0.82;;;26.80;39.60;;;;;;4992642;28;20027;-61
2022/11/23 11:25:39;;;;;;;1.02;0.73;;;27.20;39.40;;;;;;4993399;28;20026;-61
2022/11/23 11:28:22;;;;;;;0.63;0.55;;;27.30;37.10;;;;;;5034671;28;20311;-62
2022/11/23 11:31:06;;;;;;;1.60;1.02;;;26.80;37.80;;;;;;4977909;28;20034;-62
2022/11/23 11:33:44;;;;;;;1.98;0.75;;;27.00;38.70;;;;;;4991682;28;20384;-63
2022/11/23 11:36:15;;;;;;;2.20;1.23;;;27.40;37.40;;;;;;5023186;28;20029;-62
2022/11/23 11:38:47;;;;;;;0.75;0.75;;;27.60;37.00;;;;;;4991807;28;20053;-62
2022/11/23 11:41:15;;;;;;;1.08;0.90;;;27.40;36.80;;;;;;5022844;28;20484;-63
2022/11/23 11:43:54;;;;;;;2.47;0.77;;;27.30;37.00;;;;;;4991465;28;20117;-62
2022/11/23 11:46:30;;;;;;;2.38;0.85;;;27.30;36.80;;;;;;4981894;28;20565;-62
2022/11/23 11:49:30;;;;;;;8.50;0.90;;;27.30;36.50;;;;;;4993431;28;20029;-62
2022/11/23 11:52:07;;;;;;;2.38;0.50;;;27.10;36.80;;;;;;4974065;28;20118;-62
2022/11/23 11:54:53;;;;;;;0.63;0.63;;;27.00;36.70;;;;;;4989961;28;20018;-62
2022/11/23 11:57:22;;;;;;;2.83;1.13;;;26.70;36.70;;;;;;4989960;28;20096;-61
2022/11/23 11:59:52;;;;;;;0.70;0.70;;;26.20;37.50;;;;;;4995005;28;20045;-62
2022/11/23 12:02:20;;;;;;;0.70;0.65;;;25.30;39.00;;;;;;4981582;28;20497;-60
2022/11/23 12:04:50;;;;;;;3.03;1.05;;;25.00;38.40;;;;;;4988308;28;20077;-61
2022/11/23 12:07:41;;;;;;;1.25;0.98;;;25.30;38.50;;;;;;4997172;28;20686;-61
2022/11/23 12:10:20;;;;;;;0.87;0.77;;;26.10;37.60;;;;;;4993543;28;20046;-61
2022/11/23 12:12:47;;;;;;;0.50;0.50;;;27.00;36.20;;;;;;4994547;28;20281;-61
2022/11/23 12:15:18;;;;;;;0.73;0.73;;;26.90;35.80;;;;;;4991272;28;20033;-61
2022/11/23 12:18:09;;;;;;;2.08;1.15;;;26.20;36.60;;;;;;4994633;28;20704;-61
2022/11/23 12:20:54;;;;;;;0.98;0.85;;;24.50;37.80;;;;;;4992868;28;20689;-61
2022/11/23 12:23:28;;;;;;;1.25;1.15;;;21.90;40.80;;;;;;4994117;28;20027;-60
2022/11/23 12:26:22;;;;;;;1.55;0.70;;;20.00;44.50;;;;;;4992957;28;20040;-61
2022/11/23 12:28:54;;;;;;;0.60;0.35;;;18.60;47.40;;;;;;5002058;28;20034;-61
2022/11/23 12:31:38;;;;;;;0.60;0.50;;;18.10;49.10;;;;;;4992864;28;20477;-61
2022/11/23 12:35:00;;;;;;;0.47;0.47;;;18.30;49.00;;;;;;4993546;28;20041;-61
2022/11/23 12:37:42;;;;;;;2.88;0.70;;;18.70;48.60;;;;;;4946319;29;20051;-60
2022/11/23 12:40:21;;;;;;;0.50;0.50;;;19.40;47.70;;;;;;4951729;29;20023;-62
2022/11/23 12:42:54;;;;;;;3.78;0.98;;;19.50;47.00;;;;;;4985212;28;20173;-62
2022/11/23 12:45:51;;;;;;;0.65;0.60;;;19.30;47.30;;;;;;4992062;28;20097;-60
2022/11/23 12:48:39;;;;;;;0.93;0.55;;;19.10;47.50;;;;;;4992037;28;20117;-62
2022/11/23 12:51:43;;;;;;;2.05;0.65;;;18.90;48.20;;;;;;4991592;28;20034;-62
2022/11/23 12:54:24;;;;;;;0.82;0.52;;;18.90;48.10;;;;;;4994149;28;20034;-62
2022/11/23 12:56:59;;;;;;;2.13;0.85;;;18.80;48.30;;;;;;4988704;28;20416;-62
2022/11/23 12:59:29;;;;;;;2.28;0.90;;;18.60;48.40;;;;;;4998687;28;20095;-62